createdAt,value
2019-05-26T00:00:00.672Z,47.90
2019-05-26T00:02:05.586Z,47.90
2019-05-26T00:04:10.523Z,48.00
2019-05-26T00:06:15.346Z,48.00
2019-05-26T00:08:20.312Z,48.00
2019-05-26T00:10:25.365Z,48.00
2019-05-26T00:12:30.162Z,48.00
2019-05-26T00:14:35.072Z,48.10
2019-05-26T00:16:40.401Z,48.00
2019-05-26T00:18:45.249Z,47.90
2019-05-26T00:20:50.366Z,47.90
2019-05-26T00:22:55.072Z,47.90
2019-05-26T00:25:00.012Z,47.90
2019-05-26T00:27:05.028Z,47.90
2019-05-26T00:29:09.853Z,47.90
2019-05-26T00:31:14.906Z,48.00
2019-05-26T00:33:20.697Z,48.00
2019-05-26T00:35:25.586Z,48.00
2019-05-26T00:37:47.372Z,47.90
2019-05-26T00:39:36.860Z,47.90
2019-05-26T00:41:41.906Z,47.90
2019-05-26T00:43:46.821Z,48.00
2019-05-26T00:45:51.694Z,48.00
2019-05-26T00:47:56.777Z,48.10
2019-05-26T00:50:01.703Z,48.20
2019-05-26T00:52:06.658Z,48.00
2019-05-26T00:54:11.669Z,48.20
2019-05-26T00:56:17.970Z,48.00
2019-05-26T00:58:22.852Z,48.00
2019-05-26T01:00:46.104Z,48.20
2019-05-26T01:02:50.944Z,48.00
2019-05-26T01:04:55.869Z,48.00
2019-05-26T01:07:00.716Z,48.00
2019-05-26T01:09:07.701Z,48.00
2019-05-26T01:11:12.351Z,48.00
2019-05-26T01:13:17.114Z,48.20
2019-05-26T01:15:22.166Z,48.20
2019-05-26T01:17:27.128Z,47.90
2019-05-26T01:19:31.805Z,48.00
2019-05-26T01:21:37.560Z,48.10
2019-05-26T01:23:42.320Z,48.10
2019-05-26T01:25:47.084Z,48.10
2019-05-26T01:27:51.898Z,48.00
2019-05-26T01:29:56.746Z,48.10
2019-05-26T01:32:01.634Z,47.80
2019-05-26T01:34:06.614Z,47.90
2019-05-26T01:36:11.487Z,47.90
2019-05-26T01:38:23.756Z,48.00
2019-05-26T01:40:26.325Z,47.90
2019-05-26T01:42:31.168Z,47.90
2019-05-26T01:44:36.288Z,47.90
2019-05-26T01:46:41.139Z,48.10
2019-05-26T01:48:46.085Z,48.00
2019-05-26T01:50:50.959Z,48.00
2019-05-26T01:52:55.888Z,48.30
2019-05-26T01:55:00.924Z,47.80
2019-05-26T01:57:05.868Z,47.90
2019-05-26T01:59:10.983Z,48.00
2019-05-26T02:01:15.732Z,48.00
2019-05-26T02:03:20.675Z,48.00
2019-05-26T02:05:25.603Z,47.90
2019-05-26T02:07:30.342Z,48.00
2019-05-26T02:09:35.808Z,47.80
2019-05-26T02:11:40.524Z,47.90
2019-05-26T02:13:45.303Z,47.90
2019-05-26T02:15:50.106Z,48.00
2019-05-26T02:17:54.868Z,48.10
2019-05-26T02:19:59.902Z,47.90
2019-05-26T02:22:04.990Z,48.20
2019-05-26T02:24:09.921Z,48.00
2019-05-26T02:26:14.809Z,48.10
2019-05-26T02:28:19.677Z,48.00
2019-05-26T02:30:24.430Z,48.10
2019-05-26T02:32:29.398Z,48.10
2019-05-26T02:34:35.309Z,48.00
2019-05-26T02:36:41.369Z,48.10
2019-05-26T02:39:00.934Z,48.10
2019-05-26T02:40:52.755Z,48.50
2019-05-26T02:42:57.456Z,48.20
2019-05-26T02:45:02.190Z,48.20
2019-05-26T02:47:08.348Z,48.20
2019-05-26T02:49:13.381Z,48.40
2019-05-26T02:51:18.390Z,48.30
2019-05-26T02:53:24.720Z,48.30
2019-05-26T02:55:29.840Z,48.50
2019-05-26T02:57:34.946Z,48.50
2019-05-26T02:59:39.780Z,48.60
2019-05-26T03:02:02.173Z,48.50
2019-05-26T03:03:51.130Z,48.60
2019-05-26T03:05:56.086Z,48.60
2019-05-26T03:08:00.895Z,48.80
2019-05-26T03:10:05.826Z,48.70
2019-05-26T03:12:12.207Z,48.60
2019-05-26T03:14:17.073Z,48.70
2019-05-26T03:16:22.267Z,48.70
2019-05-26T03:18:27.284Z,48.70
2019-05-26T03:20:32.126Z,48.80
2019-05-26T03:22:37.162Z,48.90
2019-05-26T03:24:42.802Z,49.00
2019-05-26T03:26:47.696Z,48.90
2019-05-26T03:28:52.580Z,49.50
2019-05-26T03:30:57.336Z,48.90
2019-05-26T03:33:02.323Z,48.90
2019-05-26T03:35:08.337Z,49.00
2019-05-26T03:37:13.076Z,49.20
2019-05-26T03:39:18.119Z,48.80
2019-05-26T03:41:22.996Z,48.90
2019-05-26T03:43:27.834Z,49.20
2019-05-26T03:46:11.367Z,49.20
2019-05-26T03:48:16.245Z,49.10
2019-05-26T03:50:21.479Z,49.00
2019-05-26T03:52:26.386Z,49.10
2019-05-26T03:54:31.218Z,49.00
2019-05-26T03:56:36.178Z,49.20
2019-05-26T03:58:41.088Z,49.10
2019-05-26T04:00:45.944Z,49.30
2019-05-26T04:02:50.824Z,49.10
2019-05-26T04:04:55.618Z,49.00
2019-05-26T04:07:00.522Z,49.10
2019-05-26T04:09:07.410Z,49.00
2019-05-26T04:11:12.385Z,49.00
2019-05-26T04:13:17.179Z,49.10
2019-05-26T04:15:22.132Z,49.10
2019-05-26T04:17:27.139Z,49.10
2019-05-26T04:19:31.942Z,49.40
2019-05-26T04:21:36.822Z,49.30
2019-05-26T04:23:41.667Z,49.30
2019-05-26T04:25:46.655Z,49.80
2019-05-26T04:27:51.628Z,49.10
2019-05-26T04:29:56.497Z,49.30
2019-05-26T04:32:02.253Z,49.00
2019-05-26T04:34:07.568Z,49.10
2019-05-26T04:36:12.448Z,49.10
2019-05-26T04:38:17.281Z,49.20
2019-05-26T04:40:26.939Z,49.30
2019-05-26T04:42:28.626Z,49.40
2019-05-26T04:44:33.522Z,49.30
2019-05-26T04:46:38.298Z,49.30
2019-05-26T04:48:43.098Z,49.40
2019-05-26T04:50:48.294Z,49.60
2019-05-26T04:53:05.302Z,49.60
2019-05-26T04:54:59.623Z,49.40
2019-05-26T04:57:04.578Z,49.70
2019-05-26T04:59:09.377Z,49.70
2019-05-26T05:01:14.088Z,49.70
2019-05-26T05:03:18.856Z,49.40
2019-05-26T05:05:23.764Z,50.20
2019-05-26T05:07:28.927Z,49.50
2019-05-26T05:09:34.070Z,49.70
2019-05-26T05:11:38.908Z,49.90
2019-05-26T05:13:43.850Z,49.80
2019-05-26T05:15:48.769Z,50.00
2019-05-26T05:17:53.604Z,49.70
2019-05-26T05:19:58.629Z,49.60
2019-05-26T05:22:03.416Z,50.40
2019-05-26T05:24:08.204Z,49.80
2019-05-26T05:26:13.039Z,49.70
2019-05-26T05:28:17.930Z,49.30
2019-05-26T05:30:23.030Z,49.00
2019-05-26T05:32:27.893Z,49.10
2019-05-26T05:34:32.755Z,49.50
2019-05-26T05:36:37.669Z,49.50
2019-05-26T05:38:43.497Z,49.30
2019-05-26T05:40:58.820Z,49.50
2019-05-26T05:42:55.112Z,49.60
2019-05-26T05:44:59.907Z,49.50
2019-05-26T05:47:04.827Z,49.70
2019-05-26T05:49:11.200Z,49.80
2019-05-26T05:51:16.220Z,49.40
2019-05-26T05:53:21.150Z,49.10
2019-05-26T05:55:26.032Z,49.60
2019-05-26T05:57:30.862Z,49.20
2019-05-26T05:59:38.104Z,49.50
2019-05-26T06:01:42.839Z,49.30
2019-05-26T06:03:47.863Z,49.80
2019-05-26T06:05:52.781Z,49.00
2019-05-26T06:07:57.560Z,48.60
2019-05-26T06:10:02.399Z,49.00
2019-05-26T06:12:12.190Z,49.90
2019-05-26T06:14:17.259Z,48.90
2019-05-26T06:16:23.048Z,49.30
2019-05-26T06:18:27.940Z,49.30
2019-05-26T06:20:32.928Z,48.80
2019-05-26T06:22:38.260Z,48.60
2019-05-26T06:24:43.567Z,49.40
2019-05-26T06:26:50.339Z,49.60
2019-05-26T06:28:55.099Z,49.10
2019-05-26T06:30:59.950Z,48.80
2019-05-26T06:33:04.946Z,48.20
2019-05-26T06:35:10.033Z,49.10
2019-05-26T06:37:14.823Z,48.30
2019-05-26T06:39:19.627Z,48.40
2019-05-26T06:41:33.522Z,48.40
2019-05-26T06:43:31.040Z,47.90
2019-05-26T06:45:35.837Z,47.40
2019-05-26T06:47:40.658Z,47.60
2019-05-26T06:49:45.350Z,47.80
2019-05-26T06:51:50.764Z,48.20
2019-05-26T06:53:55.662Z,46.70
2019-05-26T06:56:00.560Z,46.60
2019-05-26T06:58:05.426Z,47.10
2019-05-26T07:00:10.291Z,47.80
2019-05-26T07:02:15.171Z,45.70
2019-05-26T07:04:20.005Z,45.40
2019-05-26T07:06:25.039Z,45.20
2019-05-26T07:08:29.897Z,45.10
2019-05-26T07:10:34.692Z,46.70
2019-05-26T07:12:39.408Z,48.60
2019-05-26T07:14:44.375Z,48.30
2019-05-26T07:16:49.148Z,48.00
2019-05-26T07:18:54.088Z,47.70
2019-05-26T07:20:59.031Z,47.90
2019-05-26T07:23:04.708Z,48.40
2019-05-26T07:25:10.772Z,48.60
2019-05-26T07:27:15.856Z,48.60
2019-05-26T07:29:20.806Z,48.10
2019-05-26T07:31:25.821Z,48.30
2019-05-26T07:33:30.586Z,47.60
2019-05-26T07:35:35.673Z,48.30
2019-05-26T07:37:40.570Z,48.00
2019-05-26T07:39:45.539Z,48.80
2019-05-26T07:42:08.612Z,48.60
2019-05-26T07:43:57.140Z,48.70
2019-05-26T07:46:02.107Z,48.40
2019-05-26T07:48:07.087Z,47.50
2019-05-26T07:50:11.997Z,47.30
2019-05-26T07:52:16.941Z,48.10
2019-05-26T07:54:25.566Z,47.30
2019-05-26T07:56:28.447Z,48.00
2019-05-26T07:58:33.398Z,48.00
2019-05-26T08:00:38.323Z,47.70
2019-05-26T08:02:43.144Z,48.30
2019-05-26T08:04:49.061Z,47.40
2019-05-26T08:06:53.998Z,47.50
2019-05-26T08:08:58.894Z,47.90
2019-05-26T08:11:03.930Z,48.60
2019-05-26T08:13:08.907Z,48.70
2019-05-26T08:15:13.767Z,48.30
2019-05-26T08:17:18.660Z,48.00
2019-05-26T08:19:23.514Z,47.70
2019-05-26T08:21:28.319Z,47.80
2019-05-26T08:23:33.094Z,47.20
2019-05-26T08:25:37.839Z,47.40
2019-05-26T08:27:42.882Z,47.10
2019-05-26T08:29:47.863Z,46.60
2019-05-26T08:31:52.862Z,46.40
2019-05-26T08:33:57.982Z,46.70
2019-05-26T08:36:03.020Z,46.60
2019-05-26T08:38:08.060Z,46.50
2019-05-26T08:40:19.110Z,45.80
2019-05-26T08:42:28.800Z,45.80
2019-05-26T08:44:30.923Z,46.10
2019-05-26T08:46:35.979Z,45.60
2019-05-26T08:48:41.124Z,45.60
2019-05-26T08:50:46.023Z,45.60
2019-05-26T08:52:50.869Z,45.60
2019-05-26T08:54:55.713Z,45.50
2019-05-26T08:57:00.611Z,45.20
2019-05-26T08:59:05.671Z,45.10
2019-05-26T09:01:10.629Z,45.50
2019-05-26T09:03:15.372Z,45.00
2019-05-26T09:05:20.211Z,45.00
2019-05-26T09:07:25.327Z,45.00
2019-05-26T09:09:30.501Z,45.10
2019-05-26T09:11:35.441Z,45.50
2019-05-26T09:13:40.551Z,44.90
2019-05-26T09:15:45.390Z,44.70
2019-05-26T09:17:50.201Z,44.50
2019-05-26T09:19:55.020Z,44.50
2019-05-26T09:22:00.043Z,45.00
2019-05-26T09:24:05.200Z,44.50
2019-05-26T09:26:10.167Z,44.40
2019-05-26T09:28:15.055Z,44.30
2019-05-26T09:30:21.678Z,44.30
2019-05-26T09:32:26.634Z,44.00
2019-05-26T09:34:31.519Z,43.80
2019-05-26T09:36:36.434Z,43.60
2019-05-26T09:38:41.504Z,43.70
2019-05-26T09:40:46.401Z,43.60
2019-05-26T09:42:51.291Z,43.60
2019-05-26T09:44:56.179Z,43.50
2019-05-26T09:47:01.130Z,43.40
2019-05-26T09:49:06.059Z,43.40
2019-05-26T09:51:11.130Z,43.10
2019-05-26T09:53:16.267Z,43.20
2019-05-26T09:55:21.172Z,43.20
2019-05-26T09:57:26.105Z,43.30
2019-05-26T09:59:30.735Z,43.30
2019-05-26T10:01:35.631Z,43.30
2019-05-26T10:03:40.327Z,43.70
2019-05-26T10:05:47.979Z,43.40
2019-05-26T10:07:52.977Z,43.20
2019-05-26T10:09:58.094Z,43.20
2019-05-26T10:12:03.102Z,43.00
2019-05-26T10:14:08.082Z,43.00
2019-05-26T10:16:13.127Z,42.90
2019-05-26T10:18:18.027Z,42.60
2019-05-26T10:20:22.881Z,42.90
2019-05-26T10:22:27.909Z,42.60
2019-05-26T10:24:33.519Z,42.40
2019-05-26T10:26:38.178Z,42.30
2019-05-26T10:28:43.062Z,42.20
2019-05-26T10:30:48.156Z,42.10
2019-05-26T10:32:53.169Z,42.30
2019-05-26T10:34:58.105Z,42.20
2019-05-26T10:37:02.931Z,42.30
2019-05-26T10:39:08.372Z,42.10
2019-05-26T10:41:13.232Z,41.90
2019-05-26T10:43:18.056Z,41.90
2019-05-26T10:45:23.891Z,42.10
2019-05-26T10:47:29.090Z,41.90
2019-05-26T10:49:33.954Z,42.20
2019-05-26T10:51:38.949Z,42.00
2019-05-26T10:53:43.756Z,41.90
2019-05-26T10:55:48.782Z,42.00
2019-05-26T10:57:53.805Z,42.00
2019-05-26T10:59:58.881Z,41.80
2019-05-26T11:02:03.832Z,42.30
2019-05-26T11:04:09.049Z,42.30
2019-05-26T11:06:14.060Z,42.50
2019-05-26T11:08:18.899Z,42.40
2019-05-26T11:10:23.795Z,42.50
2019-05-26T11:12:28.846Z,42.10
2019-05-26T11:14:34.188Z,42.10
2019-05-26T11:16:39.384Z,42.00
2019-05-26T11:18:44.287Z,41.80
2019-05-26T11:20:49.138Z,42.00
2019-05-26T11:22:54.048Z,41.90
2019-05-26T11:24:58.910Z,42.20
2019-05-26T11:27:09.152Z,41.90
2019-05-26T11:29:11.519Z,42.10
2019-05-26T11:31:16.723Z,42.30
2019-05-26T11:33:21.486Z,42.50
2019-05-26T11:35:27.889Z,42.70
2019-05-26T11:37:33.882Z,42.70
2019-05-26T11:39:38.802Z,42.50
2019-05-26T11:41:43.512Z,42.50
2019-05-26T11:43:48.211Z,42.60
2019-05-26T11:45:53.009Z,42.50
2019-05-26T11:47:57.808Z,42.40
2019-05-26T11:50:02.929Z,42.60
2019-05-26T11:52:07.649Z,42.40
2019-05-26T11:54:14.747Z,42.60
2019-05-26T11:56:19.717Z,43.00
2019-05-26T11:58:24.531Z,42.80
2019-05-26T12:00:29.273Z,42.60
2019-05-26T12:02:34.410Z,42.50
2019-05-26T12:04:39.378Z,42.50
2019-05-26T12:06:44.489Z,42.60
2019-05-26T12:08:49.468Z,42.50
2019-05-26T12:10:58.273Z,42.70
2019-05-26T12:13:02.394Z,42.00
2019-05-26T12:15:07.698Z,41.70
2019-05-26T12:17:12.736Z,42.50
2019-05-26T12:19:17.926Z,42.20
2019-05-26T12:21:23.072Z,42.20
2019-05-26T12:23:27.876Z,42.40
2019-05-26T12:25:32.728Z,42.40
2019-05-26T12:27:37.559Z,42.40
2019-05-26T12:29:42.397Z,42.40
2019-05-26T12:31:47.353Z,42.50
2019-05-26T12:33:52.264Z,42.50
2019-05-26T12:35:57.112Z,43.00
2019-05-26T12:38:02.052Z,42.20
2019-05-26T12:40:07.301Z,42.30
2019-05-26T12:42:12.203Z,42.70
2019-05-26T12:44:17.252Z,42.40
2019-05-26T12:46:23.191Z,42.10
2019-05-26T12:48:27.952Z,41.90
2019-05-26T12:50:32.728Z,41.80
2019-05-26T12:52:37.667Z,42.50
2019-05-26T12:54:42.498Z,41.80
2019-05-26T12:56:47.391Z,42.30
2019-05-26T12:58:53.226Z,42.40
2019-05-26T13:00:57.963Z,42.30
2019-05-26T13:03:04.174Z,42.50
2019-05-26T13:05:09.252Z,42.30
2019-05-26T13:07:14.143Z,42.60
2019-05-26T13:09:19.081Z,42.60
2019-05-26T13:11:23.943Z,43.20
2019-05-26T13:13:29.078Z,42.40
2019-05-26T13:15:33.993Z,42.50
2019-05-26T13:17:39.002Z,41.70
2019-05-26T13:19:43.867Z,41.40
2019-05-26T13:21:48.713Z,41.90
2019-05-26T13:23:53.702Z,42.10
2019-05-26T13:25:58.427Z,42.00
2019-05-26T13:28:03.484Z,42.10
2019-05-26T13:30:08.471Z,42.00
2019-05-26T13:32:13.299Z,41.20
2019-05-26T13:34:19.265Z,41.40
2019-05-26T13:36:23.992Z,41.60
2019-05-26T13:38:29.003Z,41.90
2019-05-26T13:40:33.961Z,42.10
2019-05-26T13:42:39.053Z,41.40
2019-05-26T13:44:44.004Z,41.60
2019-05-26T13:46:48.734Z,41.80
2019-05-26T13:48:53.582Z,41.70
2019-05-26T13:50:58.343Z,41.50
2019-05-26T13:53:03.172Z,41.50
2019-05-26T13:55:08.810Z,41.90
2019-05-26T13:57:13.875Z,41.60
2019-05-26T13:59:18.709Z,41.80
2019-05-26T14:01:23.804Z,41.60
2019-05-26T14:03:28.888Z,40.90
2019-05-26T14:05:33.646Z,40.90
2019-05-26T14:07:38.724Z,40.50
2019-05-26T14:09:43.533Z,40.60
2019-05-26T14:11:48.504Z,40.70
2019-05-26T14:13:53.367Z,40.30
2019-05-26T14:15:58.289Z,40.80
2019-05-26T14:18:03.580Z,40.70
2019-05-26T14:20:08.795Z,41.00
2019-05-26T14:22:13.866Z,41.30
2019-05-26T14:24:18.661Z,40.70
2019-05-26T14:26:23.528Z,41.60
2019-05-26T14:28:31.307Z,40.60
2019-05-26T14:30:37.065Z,40.80
2019-05-26T14:32:41.801Z,40.70
2019-05-26T14:34:46.895Z,41.30
2019-05-26T14:36:51.605Z,41.00
2019-05-26T14:38:56.645Z,41.10
2019-05-26T14:41:01.386Z,41.00
2019-05-26T14:43:06.338Z,40.80
2019-05-26T14:45:11.278Z,40.60
2019-05-26T14:47:16.876Z,40.40
2019-05-26T14:49:21.773Z,40.90
2019-05-26T14:51:26.683Z,41.10
2019-05-26T14:53:31.787Z,41.40
2019-05-26T14:55:36.675Z,41.20
2019-05-26T14:57:41.545Z,41.10
2019-05-26T14:59:46.448Z,40.60
2019-05-26T15:01:51.301Z,40.30
2019-05-26T15:03:56.205Z,40.50
2019-05-26T15:06:06.005Z,40.90
2019-05-26T15:08:08.130Z,40.80
2019-05-26T15:10:13.077Z,41.00
2019-05-26T15:12:18.404Z,40.90
2019-05-26T15:14:23.247Z,40.30
2019-05-26T15:16:28.656Z,41.00
2019-05-26T15:18:33.751Z,40.60
2019-05-26T15:20:38.614Z,40.50
2019-05-26T15:22:43.860Z,41.10
2019-05-26T15:24:48.718Z,41.10
2019-05-26T15:26:56.790Z,40.50
2019-05-26T15:29:01.805Z,39.80
2019-05-26T15:31:09.911Z,40.50
2019-05-26T15:33:13.332Z,40.60
2019-05-26T15:35:19.173Z,39.90
2019-05-26T15:37:24.210Z,39.40
2019-05-26T15:39:29.301Z,39.80
2019-05-26T15:41:34.162Z,40.20
2019-05-26T15:43:39.037Z,40.20
2019-05-26T15:45:45.213Z,40.70
2019-05-26T15:47:49.981Z,40.50
2019-05-26T15:49:54.940Z,40.70
2019-05-26T15:51:59.900Z,40.00
2019-05-26T15:54:04.992Z,40.00
2019-05-26T15:56:10.024Z,40.80
2019-05-26T15:58:14.896Z,40.90
2019-05-26T16:00:19.930Z,40.10
2019-05-26T16:02:26.129Z,40.10
2019-05-26T16:04:31.054Z,40.70
2019-05-26T16:06:35.994Z,40.90
2019-05-26T16:08:41.278Z,41.10
2019-05-26T16:10:45.943Z,41.30
2019-05-26T16:12:50.998Z,41.50
2019-05-26T16:14:55.979Z,41.50
2019-05-26T16:17:02.024Z,41.70
2019-05-26T16:19:06.967Z,41.00
2019-05-26T16:21:27.092Z,41.60
2019-05-26T16:23:18.383Z,41.30
2019-05-26T16:25:26.001Z,40.40
2019-05-26T16:27:31.119Z,41.10
2019-05-26T16:29:35.953Z,41.10
2019-05-26T16:31:40.730Z,41.60
2019-05-26T16:33:45.637Z,41.90
2019-05-26T16:35:50.471Z,42.00
2019-05-26T16:37:56.526Z,42.00
2019-05-26T16:40:01.506Z,42.20
2019-05-26T16:42:06.461Z,42.40
2019-05-26T16:44:12.403Z,42.40
2019-05-26T16:46:20.185Z,42.50
2019-05-26T16:48:25.193Z,42.50
2019-05-26T16:50:30.112Z,42.50
2019-05-26T16:52:35.219Z,42.60
2019-05-26T16:54:42.558Z,42.50
2019-05-26T16:56:47.433Z,42.40
2019-05-26T16:58:52.704Z,42.60
2019-05-26T17:00:57.636Z,42.60
2019-05-26T17:03:02.546Z,42.60
2019-05-26T17:05:07.960Z,42.50
2019-05-26T17:07:12.847Z,42.70
2019-05-26T17:09:17.684Z,42.70
2019-05-26T17:11:22.470Z,42.80
2019-05-26T17:13:27.478Z,42.80
2019-05-26T17:15:32.413Z,42.80
2019-05-26T17:17:37.302Z,42.80
2019-05-26T17:19:42.756Z,42.70
2019-05-26T17:21:47.935Z,43.00
2019-05-26T17:23:53.189Z,43.10
2019-05-26T17:25:58.297Z,43.00
2019-05-26T17:28:03.507Z,43.20
2019-05-26T17:30:08.562Z,43.10
2019-05-26T17:32:13.487Z,43.50
2019-05-26T17:34:18.511Z,43.70
2019-05-26T17:36:23.293Z,43.80
2019-05-26T17:38:28.312Z,44.00
2019-05-26T17:40:33.105Z,43.60
2019-05-26T17:42:38.000Z,42.30
2019-05-26T17:44:42.855Z,42.40
2019-05-26T17:46:48.601Z,42.60
2019-05-26T17:48:53.286Z,42.90
2019-05-26T17:51:00.996Z,42.90
2019-05-26T17:53:06.033Z,42.00
2019-05-26T17:55:10.921Z,41.80
2019-05-26T17:57:15.802Z,42.50
2019-05-26T17:59:20.757Z,44.70
2019-05-26T18:01:25.712Z,45.50
2019-05-26T18:03:30.570Z,46.10
2019-05-26T18:05:35.482Z,47.00
2019-05-26T18:07:40.306Z,47.50
2019-05-26T18:09:45.289Z,47.70
2019-05-26T18:11:50.418Z,47.70
2019-05-26T18:13:56.541Z,48.20
2019-05-26T18:16:01.421Z,47.60
2019-05-26T18:18:06.536Z,47.70
2019-05-26T18:20:12.556Z,48.00
2019-05-26T18:22:17.363Z,48.20
2019-05-26T18:24:22.292Z,48.20
2019-05-26T18:26:27.270Z,48.00
2019-05-26T18:28:32.296Z,48.20
2019-05-26T18:30:40.498Z,48.30
2019-05-26T18:32:45.435Z,48.30
2019-05-26T18:34:50.354Z,48.10
2019-05-26T18:36:55.454Z,48.30
2019-05-26T18:39:00.323Z,48.60
2019-05-26T18:41:05.603Z,48.60
2019-05-26T18:43:12.378Z,48.40
2019-05-26T18:45:18.990Z,49.10
2019-05-26T18:47:24.432Z,49.00
2019-05-26T18:49:29.331Z,49.00
2019-05-26T18:51:35.598Z,49.10
2019-05-26T18:53:40.611Z,49.20
2019-05-26T18:55:49.414Z,49.40
2019-05-26T18:57:54.905Z,49.40
2019-05-26T19:00:00.767Z,49.40
2019-05-26T19:02:08.872Z,49.50
2019-05-26T19:04:13.875Z,49.70
2019-05-26T19:06:19.964Z,49.50
2019-05-26T19:08:29.412Z,49.70
2019-05-26T19:10:37.394Z,49.70
2019-05-26T19:12:44.704Z,49.80
2019-05-26T19:14:49.749Z,49.90
2019-05-26T19:16:55.436Z,50.00
2019-05-26T19:19:01.476Z,50.00
2019-05-26T19:21:06.576Z,49.80
2019-05-26T19:23:11.475Z,49.90
2019-05-26T19:25:18.341Z,49.80
2019-05-26T19:27:23.462Z,49.80
2019-05-26T19:29:28.504Z,49.90
2019-05-26T19:31:33.482Z,50.10
2019-05-26T19:33:38.569Z,50.10
2019-05-26T19:35:43.665Z,50.10
2019-05-26T19:37:48.731Z,50.30
2019-05-26T19:39:53.729Z,50.30
2019-05-26T19:41:58.733Z,50.90
2019-05-26T19:44:03.793Z,50.30
2019-05-26T19:46:08.720Z,50.30
2019-05-26T19:48:13.625Z,50.30
2019-05-26T19:50:18.692Z,50.40
2019-05-26T19:52:23.638Z,50.90
2019-05-26T19:54:28.482Z,50.40
2019-05-26T19:56:34.527Z,50.40
2019-05-26T19:58:39.470Z,50.50
2019-05-26T20:00:44.746Z,50.40
2019-05-26T20:02:50.958Z,50.40
2019-05-26T20:04:55.981Z,50.30
